Time;durP1;ratioP1;P1;durP2;ratioP2;P2;SDS_P1;SDS_P2;PMS_P1;PMS_P2;Temp;Humidity;BMP_temperature;BMP_pressure;BME280_temperature;BME280_humidity;BME280_pressure;Samples;Min_cycle;Max_cycle;Signal;HPM_P1;HPM_P2
2022/05/24 00:04:42;;;;;;;9.85;6.13;;;;;;;13.70;100.00;100021.19;10403226;28;20555;-73
2022/05/24 00:09:42;;;;;;;15.27;6.15;;;;;;;13.54;100.00;100013.78;10416186;28;20053;-75
2022/05/24 00:20:03;;;;;;;13.43;4.93;;;;;;;13.50;100.00;100026.22;10401183;28;20037;-74
2022/05/24 00:25:03;;;;;;;19.98;5.20;;;;;;;13.57;100.00;100020.63;10398184;28;20037;-74
2022/05/24 00:30:05;;;;;;;22.73;6.63;;;;;;;13.56;100.00;100025.25;10415379;28;20060;-74
2022/05/24 00:35:06;;;;;;;17.38;5.45;;;;;;;13.64;100.00;100015.88;10420577;28;20038;-74
2022/05/24 00:40:08;;;;;;;18.83;10.52;;;;;;;13.54;100.00;99997.47;10416066;28;20076;-73
2022/05/24 00:45:13;;;;;;;17.20;8.80;;;;;;;13.48;100.00;99999.22;10398809;28;20029;-74
2022/05/24 00:50:17;;;;;;;19.77;11.70;;;;;;;13.36;100.00;100011.19;10398849;28;20060;-74
2022/05/24 00:55:22;;;;;;;15.10;8.77;;;;;;;13.40;100.00;100020.50;10397984;28;20034;-75
2022/05/24 01:00:22;;;;;;;28.27;8.35;;;;;;;13.33;100.00;100027.97;10413844;28;20038;-74
2022/05/24 01:05:25;;;;;;;16.25;9.68;;;;;;;13.32;100.00;100024.44;10397838;28;20029;-75
2022/05/24 01:10:25;;;;;;;21.88;11.20;;;;;;;13.28;100.00;100019.72;10414759;28;20121;-73
2022/05/24 01:15:26;;;;;;;24.70;10.50;;;;;;;13.27;100.00;100013.44;10414685;28;20191;-75
2022/05/24 01:20:26;;;;;;;22.55;9.80;;;;;;;13.32;100.00;100026.34;10413801;28;20274;-74
2022/05/24 01:25:51;;;;;;;15.93;8.35;;;;;;;13.39;100.00;100024.31;10397016;28;20489;-74
2022/05/24 01:30:52;;;;;;;19.88;7.63;;;;;;;13.42;100.00;100026.56;10414684;28;20052;-75
2022/05/24 01:36:11;;;;;;;13.38;6.82;;;;;;;13.32;100.00;100026.34;10397437;28;20033;-75
2022/05/24 01:41:39;;;;;;;23.20;9.20;;;;;;;13.27;100.00;100010.72;10414958;28;20025;-73
2022/05/24 01:46:46;;;;;;;16.52;7.43;;;;;;;13.24;100.00;100017.47;10398729;28;20044;-73
2022/05/24 01:51:59;;;;;;;11.25;8.50;;;;;;;13.24;100.00;100006.59;10407607;28;20037;-74
2022/05/24 01:57:04;;;;;;;14.40;8.85;;;;;;;13.18;100.00;99991.19;10404282;28;20039;-73
2022/05/24 02:02:05;;;;;;;15.10;9.10;;;;;;;13.12;100.00;99999.47;10420059;28;20033;-75
2022/05/24 02:07:11;;;;;;;16.58;10.10;;;;;;;13.22;100.00;100008.69;10422647;28;20376;-73
2022/05/24 02:12:16;;;;;;;18.50;9.50;;;;;;;13.22;100.00;99989.66;10420324;28;20430;-74
2022/05/24 02:17:24;;;;;;;20.60;8.70;;;;;;;13.29;100.00;99999.63;10421624;28;20084;-74
2022/05/24 02:22:26;;;;;;;11.40;9.98;;;;;;;13.30;100.00;100006.69;10426484;28;20040;-74
2022/05/24 02:27:27;;;;;;;19.73;10.20;;;;;;;13.18;100.00;100001.25;10433532;28;20061;-74
2022/05/24 02:32:27;;;;;;;31.20;10.48;;;;;;;13.01;100.00;100001.09;10404107;28;20404;-74
2022/05/24 02:37:27;;;;;;;21.92;9.82;;;;;;;12.91;100.00;99987.28;10402158;28;20030;-75
2022/05/24 02:42:29;;;;;;;25.63;10.02;;;;;;;12.94;100.00;100000.41;10420304;28;20048;-74
2022/05/24 02:47:29;;;;;;;17.42;9.10;;;;;;;12.76;100.00;99994.00;10420415;28;20104;-75
2022/05/24 02:52:30;;;;;;;13.98;5.80;;;;;;;12.78;100.00;99997.31;10418039;28;20033;-74
2022/05/24 02:57:30;;;;;;;6.00;3.42;;;;;;;12.87;100.00;100016.00;10400258;28;20041;-74
2022/05/24 03:02:31;;;;;;;12.23;5.35;;;;;;;12.86;100.00;100008.88;10423181;28;20034;-74
2022/05/24 03:18:11;;;;;;;6.82;4.55;;;;;;;12.70;100.00;100026.69;10417743;28;20041;-75
2022/05/24 03:23:11;;;;;;;13.75;4.40;;;;;;;12.56;100.00;100023.38;10385307;28;20032;-74
2022/05/24 03:28:12;;;;;;;9.63;3.95;;;;;;;12.52;100.00;100039.28;10417999;28;20370;-75
2022/05/24 03:33:12;;;;;;;7.65;3.88;;;;;;;12.53;100.00;100050.97;10418230;28;20081;-75
2022/05/24 03:38:13;;;;;;;17.48;5.35;;;;;;;12.59;100.00;100047.34;10418787;28;20033;-74
2022/05/24 03:43:14;;;;;;;23.35;4.97;;;;;;;12.63;100.00;100048.53;10417868;28;20036;-73
2022/05/24 03:48:14;;;;;;;24.95;4.43;;;;;;;12.61;100.00;100045.22;10415603;28;20033;-75
2022/05/24 03:53:15;;;;;;;22.35;4.28;;;;;;;12.48;100.00;100073.41;10416903;28;20026;-74
2022/05/24 03:58:16;;;;;;;6.82;4.00;;;;;;;12.36;100.00;100075.25;10416916;28;20029;-74
2022/05/24 04:03:16;;;;;;;7.60;3.60;;;;;;;12.43;100.00;100100.41;10416816;28;20025;-73
2022/05/24 04:08:18;;;;;;;17.25;3.20;;;;;;;12.45;100.00;100089.34;10398223;28;20381;-73
2022/05/24 04:13:19;;;;;;;10.02;3.30;;;;;;;12.41;100.00;100082.69;10414851;28;20483;-74
2022/05/24 04:18:19;;;;;;;8.13;3.28;;;;;;;12.41;100.00;100078.13;10417060;28;20037;-75
2022/05/24 04:23:21;;;;;;;19.02;3.83;;;;;;;12.48;100.00;100099.75;10400584;28;20100;-74
2022/05/24 04:28:22;;;;;;;9.05;3.75;;;;;;;12.47;100.00;100096.16;10415961;28;20479;-75
2022/05/24 04:33:23;;;;;;;4.93;2.92;;;;;;;12.46;100.00;100089.09;10398131;28;20599;-75
2022/05/24 04:38:24;;;;;;;26.23;4.40;;;;;;;12.48;100.00;100087.00;10398495;28;20087;-74
2022/05/24 04:43:24;;;;;;;7.22;3.50;;;;;;;12.55;100.00;100086.91;10430199;28;20061;-74
2022/05/24 04:48:25;;;;;;;10.20;3.55;;;;;;;12.71;100.00;100091.66;10414128;28;20038;-75
2022/05/24 04:53:27;;;;;;;8.77;4.47;;;;;;;12.78;100.00;100086.97;10427720;28;20488;-75
2022/05/24 04:58:27;;;;;;;4.07;3.63;;;;;;;13.18;100.00;100094.50;10415451;28;20043;-74
2022/05/24 05:03:27;;;;;;;6.13;3.53;;;;;;;13.68;100.00;100107.66;10414122;28;20038;-74
2022/05/24 05:08:28;;;;;;;11.50;5.15;;;;;;;13.14;100.00;100106.88;10402524;28;20033;-72
2022/05/24 05:13:29;;;;;;;19.20;4.85;;;;;;;12.85;100.00;100122.19;10420089;28;20045;-72
2022/05/24 05:18:30;;;;;;;14.15;5.97;;;;;;;13.76;100.00;100127.44;10415651;28;20049;-73
2022/05/24 05:23:30;;;;;;;5.20;3.97;;;;;;;14.05;100.00;100142.78;10402046;28;20054;-73
2022/05/24 05:28:31;;;;;;;12.95;3.92;;;;;;;14.19;100.00;100130.56;10404441;28;20022;-73
2022/05/24 05:33:32;;;;;;;4.32;3.92;;;;;;;14.38;100.00;100133.13;10426320;28;20068;-75
2022/05/24 05:38:33;;;;;;;13.05;6.35;;;;;;;13.98;100.00;100135.81;10388329;28;20141;-75
2022/05/24 05:43:34;;;;;;;16.15;5.57;;;;;;;13.89;100.00;100151.69;10420918;28;20056;-74
2022/05/24 05:48:34;;;;;;;26.02;6.40;;;;;;;14.29;100.00;100156.34;10421399;28;20037;-75
2022/05/24 05:53:34;;;;;;;12.18;4.55;;;;;;;13.65;100.00;100167.16;10387672;28;20131;-73
2022/05/24 05:58:35;;;;;;;5.22;4.85;;;;;;;13.10;100.00;100178.28;10403670;28;20037;-75
2022/05/24 06:03:35;;;;;;;5.10;4.70;;;;;;;12.73;100.00;100206.38;10420861;28;20049;-75
2022/05/24 06:08:35;;;;;;;7.47;5.63;;;;;;;12.52;100.00;100187.84;10426782;28;20034;-78
2022/05/24 06:13:36;;;;;;;6.70;5.32;;;;;;;12.08;100.00;100200.66;10424816;28;20044;-76
2022/05/24 06:18:37;;;;;;;13.60;5.82;;;;;;;12.07;100.00;100212.56;10421097;28;20030;-77
2022/05/24 06:23:37;;;;;;;9.18;6.28;;;;;;;11.97;100.00;100225.81;10402729;28;20485;-78
2022/05/24 06:28:38;;;;;;;9.43;5.65;;;;;;;11.94;100.00;100234.41;10400978;28;20457;-78
2022/05/24 06:33:38;;;;;;;10.40;6.13;;;;;;;11.89;100.00;100232.34;10420172;28;20058;-80
2022/05/24 06:38:38;;;;;;;10.75;6.68;;;;;;;12.02;100.00;100225.97;10403121;28;20481;-79
2022/05/24 06:43:39;;;;;;;13.63;5.72;;;;;;;12.08;100.00;100246.78;10419952;28;20037;-77
2022/05/24 06:48:40;;;;;;;5.43;4.57;;;;;;;12.06;100.00;100249.72;10420717;28;20045;-76
2022/05/24 06:53:41;;;;;;;7.72;4.60;;;;;;;11.96;100.00;100256.69;10418264;28;20060;-79
2022/05/24 06:58:42;;;;;;;4.45;4.05;;;;;;;12.00;100.00;100257.94;10418298;28;20044;-78
2022/05/24 07:03:42;;;;;;;8.13;4.28;;;;;;;12.16;100.00;100259.25;10419167;28;20437;-78
2022/05/24 07:08:43;;;;;;;8.30;3.95;;;;;;;12.16;100.00;100265.50;10391272;28;20041;-78
2022/05/24 07:13:46;;;;;;;11.23;3.92;;;;;;;12.06;100.00;100278.72;10428268;28;20049;-77
2022/05/24 07:18:47;;;;;;;5.75;3.67;;;;;;;11.89;100.00;100277.63;10421512;28;20057;-78
2022/05/24 07:23:47;;;;;;;4.78;2.80;;;;;;;11.80;100.00;100285.19;10401579;28;20080;-77
2022/05/24 07:28:47;;;;;;;1.25;1.25;;;;;;;11.67;100.00;100283.41;10423118;28;20030;-79
2022/05/24 07:33:48;;;;;;;6.65;2.50;;;;;;;11.62;100.00;100300.34;10423606;28;20156;-79
2022/05/24 07:38:48;;;;;;;5.60;3.05;;;;;;;12.36;100.00;100297.06;10402521;28;20441;-78
2022/05/24 07:49:08;;;;;;;3.67;2.80;;;;;;;13.68;100.00;100316.34;10416789;28;20116;-78
2022/05/24 07:54:10;;;;;;;1.67;1.58;;;;;;;13.77;100.00;100330.44;10416449;28;20034;-79
2022/05/24 07:59:10;;;;;;;3.05;1.70;;;;;;;13.35;100.00;100327.72;10416598;28;20033;-78
2022/05/24 08:04:12;;;;;;;4.53;2.55;;;;;;;13.33;100.00;100329.81;10399743;28;20041;-77
2022/05/24 08:09:12;;;;;;;7.28;1.98;;;;;;;13.16;100.00;100340.47;10417271;28;20099;-78
2022/05/24 08:14:12;;;;;;;5.20;1.77;;;;;;;13.07;100.00;100353.53;10417596;28;20480;-77
2022/05/24 08:19:13;;;;;;;2.33;2.13;;;;;;;12.76;100.00;100352.63;10416649;28;20386;-77
2022/05/24 08:24:15;;;;;;;6.53;2.65;;;;;;;13.47;100.00;100358.50;10384071;28;20037;-77
2022/05/24 08:29:16;;;;;;;2.97;2.75;;;;;;;14.67;100.00;100362.09;10416395;28;20044;-76
2022/05/24 08:34:17;;;;;;;3.90;2.65;;;;;;;14.69;100.00;100376.31;10417574;28;20556;-76
2022/05/24 08:39:18;;;;;;;4.47;3.47;;;;;;;14.49;100.00;100380.19;10415632;28;20065;-77
2022/05/24 08:49:59;;;;;;;2.80;1.38;;;;;;;13.71;100.00;100398.34;10400462;28;20124;-75
2022/05/24 08:54:59;;;;;;;4.35;1.52;;;;;;;13.74;100.00;100413.38;10382804;28;20033;-75
2022/05/24 09:00:05;;;;;;;3.33;2.08;;;;;;;13.47;100.00;100424.63;10421974;28;20071;-75
2022/05/24 09:05:05;;;;;;;8.18;1.42;;;;;;;13.56;100.00;100436.03;10406004;28;20043;-75
2022/05/24 09:10:13;;;;;;;2.25;1.45;;;;;;;13.77;100.00;100423.81;10405437;28;20026;-75
2022/05/24 09:15:40;;;;;;;11.80;2.30;;;;;;;13.71;100.00;100447.31;10404594;28;20084;-75
2022/05/24 09:20:42;;;;;;;3.25;2.05;;;;;;;14.01;100.00;100446.50;10423727;28;20045;-74
2022/05/24 09:25:56;;;;;;;7.30;2.30;;;;;;;14.40;100.00;100457.88;10423212;28;20556;-74
2022/05/24 09:30:57;;;;;;;6.45;2.60;;;;;;;14.76;100.00;100464.22;10424734;28;20041;-74
2022/05/24 09:35:58;;;;;;;6.40;3.10;;;;;;;15.07;100.00;100479.41;10408635;28;20431;-74
2022/05/24 09:41:03;;;;;;;4.03;1.85;;;;;;;14.44;100.00;100486.31;10409953;28;20500;-73
2022/05/24 09:46:20;;;;;;;7.65;2.58;;;;;;;14.28;100.00;100492.41;10405959;28;20477;-74
2022/05/24 09:51:37;;;;;;;7.97;2.58;;;;;;;14.52;100.00;100496.91;10403947;28;20092;-74
2022/05/24 09:56:37;;;;;;;16.33;3.43;;;;;;;15.02;100.00;100518.28;10404705;28;20044;-73
2022/05/24 10:01:40;;;;;;;6.30;2.85;;;;;;;15.68;100.00;100523.63;10421157;28;20022;-75
2022/05/24 10:06:41;;;;;;;14.63;2.92;;;;;;;16.78;100.00;100516.16;10419925;28;20033;-74
2022/05/24 10:11:50;;;;;;;2.22;2.05;;;;;;;17.99;100.00;100515.47;10388031;28;20029;-74
2022/05/24 10:17:11;;;;;;;8.48;2.40;;;;;;;18.91;100.00;100530.94;10421456;28;20037;-72
2022/05/24 10:22:53;;;;;;;1.63;1.42;;;;;;;18.24;100.00;100536.84;10421090;28;20035;-74
2022/05/24 10:28:06;;;;;;;2.03;1.67;;;;;;;18.62;100.00;100537.78;10375066;28;20038;-74
2022/05/24 10:39:03;;;;;;;4.43;1.60;;;;;;;18.83;100.00;100550.66;10404573;28;20025;-73
2022/05/24 10:44:17;;;;;;;8.27;1.30;;;;;;;18.53;100.00;100553.88;10420587;28;20100;-72
2022/05/24 10:49:29;;;;;;;8.02;2.15;;;;;;;17.62;100.00;100557.97;10418813;28;20037;-73
2022/05/24 10:54:50;;;;;;;2.38;1.48;;;;;;;17.96;100.00;100560.63;10401205;28;20037;-73
2022/05/24 10:59:56;;;;;;;4.82;2.42;;;;;;;19.11;100.00;100568.69;10417346;28;20342;-74
2022/05/24 11:05:18;;;;;;;2.08;1.55;;;;;;;19.37;100.00;100566.13;10402135;28;20041;-74
2022/05/24 11:10:30;;;;;;;3.08;1.58;;;;;;;19.25;100.00;100558.94;10416426;28;20026;-73
2022/05/24 11:15:33;;;;;;;5.75;1.85;;;;;;;18.88;100.00;100563.56;10416331;28;20037;-74
2022/05/24 11:20:37;;;;;;;1.40;1.30;;;;;;;19.15;100.00;100564.34;10398682;28;20033;-74
2022/05/24 11:25:53;;;;;;;5.40;1.65;;;;;;;17.76;100.00;100572.13;10383299;28;20033;-74
2022/05/24 11:30:54;;;;;;;1.30;1.10;;;;;;;18.50;100.00;100582.63;10416538;28;20136;-74
2022/05/24 11:35:55;;;;;;;2.20;1.60;;;;;;;19.22;100.00;100591.56;10417037;28;20068;-74
2022/05/24 11:41:19;;;;;;;1.83;1.35;;;;;;;20.24;100.00;100594.94;10399610;28;20123;-74
2022/05/24 11:46:34;;;;;;;2.03;1.80;;;;;;;21.69;98.15;100601.16;10399167;28;20029;-75
2022/05/24 11:51:41;;;;;;;1.92;1.83;;;;;;;21.68;89.12;100596.75;10418279;28;20032;-75
2022/05/24 11:57:03;;;;;;;2.17;1.10;;;;;;;22.15;80.74;100600.22;10417921;28;20029;-74
2022/05/24 12:02:34;;;;;;;1.05;1.02;;;;;;;22.92;92.13;100595.94;10401066;28;20076;-74
2022/05/24 12:13:02;;;;;;;1.00;1.00;;;;;;;22.93;85.26;100616.94;10400827;28;20108;-73
2022/05/24 12:18:02;;;;;;;0.90;0.90;;;;;;;22.72;75.29;100620.94;10417533;28;20048;-75
2022/05/24 12:23:02;;;;;;;0.70;0.70;;;;;;;22.61;76.17;100636.69;10416343;28;20029;-72
2022/05/24 12:28:03;;;;;;;1.05;0.98;;;;;;;22.76;85.44;100633.03;10414735;28;20112;-73
2022/05/24 12:33:37;;;;;;;1.42;0.55;;;;;;;22.56;77.58;100635.91;10413511;28;20053;-74
2022/05/24 12:38:38;;;;;;;1.30;1.20;;;;;;;22.83;85.35;100641.81;10386609;28;20041;-74
2022/05/24 12:43:48;;;;;;;0.90;0.90;;;;;;;22.74;80.31;100647.09;10414789;28;20040;-74
2022/05/24 12:48:50;;;;;;;1.38;1.30;;;;;;;22.85;79.50;100656.19;10381473;28;20030;-74
2022/05/24 12:53:51;;;;;;;1.95;1.15;;;;;;;22.95;91.56;100655.31;10397587;28;20112;-73
2022/05/24 12:58:55;;;;;;;0.90;0.90;;;;;;;22.77;84.35;100645.72;10396681;28;20029;-74
2022/05/24 13:04:07;;;;;;;0.70;0.70;;;;;;;23.15;84.77;100663.44;10399360;28;20057;-74
2022/05/24 13:09:27;;;;;;;2.67;0.90;;;;;;;23.42;69.40;100654.69;10417375;28;20031;-73
2022/05/24 13:14:47;;;;;;;1.05;0.93;;;;;;;22.64;84.31;100662.91;10414101;28;20029;-73
2022/05/24 13:20:07;;;;;;;0.50;0.50;;;;;;;22.21;80.23;100670.84;10397048;28;20554;-74
2022/05/24 13:25:14;;;;;;;1.65;0.77;;;;;;;21.65;81.59;100665.41;10413029;28;20082;-74
2022/05/24 13:35:34;;;;;;;1.52;1.25;;;;;;;21.69;80.03;100672.00;10400109;28;20436;-74
2022/05/24 13:40:36;;;;;;;1.23;1.15;;;;;;;21.82;78.95;100676.94;10397038;28;20037;-74
2022/05/24 13:45:38;;;;;;;7.90;1.45;;;;;;;21.88;80.73;100689.59;10421904;28;20017;-73
2022/05/24 13:50:41;;;;;;;2.55;1.15;;;;;;;21.84;74.85;100691.28;10420532;28;20041;-74
2022/05/24 13:55:59;;;;;;;4.50;1.30;;;;;;;22.04;81.18;100690.41;10403313;28;20025;-73
2022/05/24 14:01:02;;;;;;;1.27;0.93;;;;;;;21.50;71.70;100696.53;10403329;28;20029;-73
2022/05/24 14:06:07;;;;;;;1.42;1.33;;;;;;;22.25;77.24;100708.59;10420363;28;20457;-74
2022/05/24 14:11:12;;;;;;;1.10;1.02;;;;;;;22.34;73.79;100711.59;10419887;28;20036;-73
2022/05/24 14:16:13;;;;;;;2.38;1.13;;;;;;;21.85;73.59;100700.38;10387234;28;20034;-73
2022/05/24 14:21:15;;;;;;;0.85;0.85;;;;;;;21.79;71.95;100710.56;10404597;28;20113;-74
2022/05/24 14:26:15;;;;;;;2.28;1.52;;;;;;;21.30;75.27;100716.59;10388461;28;20044;-73
2022/05/24 14:31:18;;;;;;;1.45;1.13;;;;;;;20.99;83.51;100719.28;10403294;28;20064;-73
2022/05/24 14:36:18;;;;;;;0.55;0.55;;;;;;;20.93;79.69;100738.81;10417182;28;20037;-74
2022/05/24 14:41:22;;;;;;;0.80;0.80;;;;;;;20.71;82.50;100733.50;10417431;28;20037;-74
2022/05/24 14:46:23;;;;;;;1.35;0.93;;;;;;;20.51;79.02;100745.22;10418632;28;20042;-75
2022/05/24 14:51:31;;;;;;;5.00;1.20;;;;;;;20.61;78.93;100745.28;10400789;28;20056;-74
2022/05/24 14:56:31;;;;;;;1.60;1.40;;;;;;;20.06;76.83;100757.59;10419191;28;20129;-74
2022/05/24 15:01:32;;;;;;;0.57;0.57;;;;;;;19.27;73.61;100768.16;10400931;28;20125;-73
2022/05/24 15:06:36;;;;;;;0.73;0.73;;;;;;;18.75;73.57;100762.31;10418189;28;20036;-75
2022/05/24 15:16:58;;;;;;;2.53;1.42;;;;;;;18.74;75.90;100786.19;10403000;28;20041;-74
2022/05/24 15:21:58;;;;;;;1.55;1.45;;;;;;;18.68;84.81;100798.16;10417608;28;20038;-75
2022/05/24 15:27:02;;;;;;;1.08;1.08;;;;;;;18.45;79.15;100810.16;10418405;28;20064;-74
2022/05/24 15:32:04;;;;;;;1.70;1.02;;;;;;;18.65;86.46;100801.41;10403560;28;20393;-74
2022/05/24 15:37:05;;;;;;;1.10;1.10;;;;;;;18.80;86.40;100809.88;10417319;28;20051;-74
2022/05/24 15:42:08;;;;;;;1.00;1.00;;;;;;;19.30;79.40;100816.22;10400167;28;20037;-75
2022/05/24 15:47:08;;;;;;;1.27;1.20;;;;;;;19.49;76.49;100828.50;10416644;28;20037;-73
2022/05/24 15:52:09;;;;;;;1.45;1.15;;;;;;;19.28;86.35;100827.47;10398718;28;20045;-75
2022/05/24 15:57:09;;;;;;;1.92;1.25;;;;;;;18.90;79.28;100836.59;10398914;28;20117;-74
2022/05/24 16:02:10;;;;;;;1.55;1.23;;;;;;;18.26;81.77;100831.53;10382445;28;20457;-74
2022/05/24 16:12:36;;;;;;;1.08;1.08;;;;;;;17.92;84.70;100840.84;10415983;28;20037;-75
2022/05/24 16:17:37;;;;;;;3.20;1.08;;;;;;;17.47;85.66;100844.38;10415702;28;20025;-74
2022/05/24 16:22:38;;;;;;;6.05;1.20;;;;;;;17.28;81.92;100839.09;10397910;28;20037;-74
2022/05/24 16:27:38;;;;;;;1.05;1.05;;;;;;;17.08;88.41;100842.25;10397141;28;20036;-75
2022/05/24 16:32:39;;;;;;;6.30;2.15;;;;;;;17.13;90.81;100845.09;10415009;28;20604;-74
2022/05/24 16:37:40;;;;;;;1.20;1.20;;;;;;;17.04;85.74;100846.56;10397451;28;20120;-74
2022/05/24 16:42:40;;;;;;;3.67;1.40;;;;;;;17.03;88.97;100854.97;10417304;28;20477;-74
2022/05/24 16:47:40;;;;;;;1.02;1.02;;;;;;;16.91;91.87;100865.94;10399955;28;20037;-72
2022/05/24 16:52:41;;;;;;;1.35;1.25;;;;;;;16.82;86.65;100868.22;10402068;28;20049;-75
2022/05/24 17:03:01;;;;;;;1.17;0.60;;;;;;;16.46;90.60;100874.72;10414471;28;20045;-74
2022/05/24 17:08:03;;;;;;;1.83;1.38;;;;;;;16.19;87.40;100885.28;10396369;28;20037;-74
2022/05/24 17:13:08;;;;;;;2.72;1.70;;;;;;;15.91;86.59;100897.69;10413412;28;20025;-74
2022/05/24 17:18:08;;;;;;;2.53;0.88;;;;;;;15.76;89.58;100894.53;10417779;28;20059;-75
2022/05/24 17:23:08;;;;;;;3.28;1.48;;;;;;;15.64;89.18;100904.56;10388027;28;20550;-74
2022/05/24 17:28:09;;;;;;;1.90;1.70;;;;;;;15.49;88.63;100907.72;10422751;28;20045;-74
2022/05/24 17:33:11;;;;;;;1.65;1.55;;;;;;;15.51;91.84;100909.16;10422971;28;20098;-74
2022/05/24 17:38:12;;;;;;;1.88;1.70;;;;;;;15.40;91.61;100907.19;10422046;28;20029;-75
2022/05/24 17:43:17;;;;;;;10.68;1.17;;;;;;;15.38;93.47;100919.38;10406029;28;20420;-75
2022/05/24 17:48:19;;;;;;;1.27;1.27;;;;;;;15.29;94.68;100921.59;10422265;28;20112;-74
2022/05/24 17:53:19;;;;;;;1.52;1.42;;;;;;;15.16;92.02;100917.13;10404444;28;20033;-75
2022/05/24 17:58:20;;;;;;;1.95;1.23;;;;;;;15.04;93.85;100922.50;10421537;28;20104;-74
2022/05/24 18:03:21;;;;;;;1.00;1.00;;;;;;;14.90;91.52;100921.00;10422998;28;20048;-75
2022/05/24 18:08:21;;;;;;;4.35;2.17;;;;;;;14.85;93.66;100929.00;10423765;28;20395;-75
2022/05/24 18:13:22;;;;;;;1.13;1.13;;;;;;;14.82;93.43;100924.00;10420507;28;20033;-74
2022/05/24 18:18:23;;;;;;;2.50;1.58;;;;;;;14.77;91.58;100930.13;10419785;28;20048;-74
2022/05/24 18:23:26;;;;;;;2.00;1.90;;;;;;;14.78;92.75;100930.97;10421529;28;20048;-75
2022/05/24 18:33:45;;;;;;;1.42;1.33;;;;;;;14.48;92.71;100938.94;10422343;28;20404;-75
2022/05/24 18:38:46;;;;;;;0.93;0.93;;;;;;;14.33;91.57;100939.28;10419424;28;20037;-75
2022/05/24 18:43:46;;;;;;;1.73;1.17;;;;;;;14.19;91.50;100939.38;10420267;28;20465;-75
2022/05/24 18:48:46;;;;;;;2.22;1.15;;;;;;;14.12;93.00;100948.66;10417918;28;20112;-75
2022/05/24 18:53:47;;;;;;;2.05;1.85;;;;;;;14.06;92.25;100961.25;10401861;28;20038;-75
2022/05/24 18:58:47;;;;;;;2.00;1.90;;;;;;;13.95;92.86;100961.97;10420778;28;20037;-75
2022/05/24 19:03:48;;;;;;;3.83;1.55;;;;;;;13.83;92.98;100956.34;10420132;28;20045;-75
2022/05/24 19:08:48;;;;;;;1.33;1.33;;;;;;;13.77;94.06;100967.28;10418431;28;20477;-75
2022/05/24 19:13:49;;;;;;;3.22;2.60;;;;;;;13.68;94.16;100969.41;10419085;28;20448;-75
2022/05/24 19:18:49;;;;;;;2.03;1.45;;;;;;;13.58;95.97;100975.31;10419111;28;20034;-76
2022/05/24 19:23:50;;;;;;;6.05;2.10;;;;;;;13.49;96.84;100976.59;10418314;28;20037;-75
2022/05/24 19:28:50;;;;;;;2.63;1.30;;;;;;;13.35;96.88;100983.16;10418592;28;20488;-75
2022/05/24 19:33:50;;;;;;;2.05;1.90;;;;;;;13.23;96.67;100993.81;10383559;28;20107;-75
2022/05/24 19:44:15;;;;;;;3.20;2.90;;;;;;;13.07;97.71;101005.97;10415985;28;20038;-75
2022/05/24 19:49:15;;;;;;;5.80;2.03;;;;;;;12.98;98.16;101002.63;10416464;28;20033;-76
2022/05/24 19:54:18;;;;;;;2.88;2.13;;;;;;;12.93;98.89;101018.75;10399940;28;20046;-75
2022/05/24 19:59:19;;;;;;;1.75;1.65;;;;;;;12.87;99.73;101027.75;10417019;28;20115;-75
2022/05/24 20:04:19;;;;;;;2.08;1.92;;;;;;;12.78;99.70;101037.97;10416108;28;20084;-75
2022/05/24 20:09:20;;;;;;;1.88;1.70;;;;;;;12.78;100.00;101046.13;10399988;28;20357;-75
2022/05/24 20:14:21;;;;;;;1.88;1.77;;;;;;;12.70;100.00;101054.50;10398494;28;20108;-76
2022/05/24 20:19:22;;;;;;;6.35;2.58;;;;;;;12.61;100.00;101068.50;10415674;28;20038;-76
2022/05/24 20:24:22;;;;;;;2.70;2.13;;;;;;;12.52;100.00;101071.38;10414543;28;20421;-75
2022/05/24 20:29:23;;;;;;;2.17;1.88;;;;;;;12.49;100.00;101073.69;10399089;28;20033;-75
2022/05/24 20:34:23;;;;;;;6.63;1.63;;;;;;;12.37;100.00;101078.88;10415382;28;20525;-75
2022/05/24 20:39:23;;;;;;;3.22;2.10;;;;;;;12.39;100.00;101089.53;10414771;28;20488;-75
2022/05/24 20:44:24;;;;;;;2.30;2.03;;;;;;;12.33;100.00;101096.63;10415609;28;20103;-76
2022/05/24 20:49:24;;;;;;;1.92;1.83;;;;;;;12.24;100.00;101087.81;10398723;28;20061;-75
2022/05/24 20:54:25;;;;;;;1.95;1.85;;;;;;;12.24;100.00;101084.28;10423612;28;20041;-76
2022/05/24 20:59:26;;;;;;;4.60;2.63;;;;;;;12.22;100.00;101089.91;10423358;28;20045;-76
2022/05/24 21:04:27;;;;;;;2.42;2.20;;;;;;;12.19;100.00;101093.03;10423232;28;20125;-76
2022/05/24 21:09:28;;;;;;;1.98;1.73;;;;;;;12.17;100.00;101097.00;10405337;28;20030;-76
2022/05/24 21:14:28;;;;;;;2.97;2.45;;;;;;;12.13;100.00;101098.44;10423522;28;20103;-76
2022/05/24 21:19:29;;;;;;;2.08;1.48;;;;;;;12.07;100.00;101100.91;10405651;28;20083;-76
2022/05/24 21:24:29;;;;;;;6.68;1.77;;;;;;;12.01;100.00;101114.47;10404579;28;20401;-76
2022/05/24 21:29:30;;;;;;;3.67;1.52;;;;;;;11.98;100.00;101107.56;10422029;28;20064;-76
2022/05/24 21:34:31;;;;;;;3.63;2.03;;;;;;;11.96;100.00;101112.34;10389035;28;20087;-76
2022/05/24 21:39:32;;;;;;;6.10;2.30;;;;;;;11.90;100.00;101118.59;10423741;28;20033;-76
2022/05/24 21:44:32;;;;;;;2.20;2.00;;;;;;;11.90;100.00;101124.03;10405189;28;20090;-75
2022/05/24 21:49:33;;;;;;;3.15;2.45;;;;;;;11.88;100.00;101136.94;10423159;28;20089;-75
2022/05/24 21:54:33;;;;;;;7.90;2.97;;;;;;;11.82;100.00;101137.72;10421849;28;20068;-75
2022/05/24 21:59:43;;;;;;;2.50;1.60;;;;;;;11.76;100.00;101128.50;10421234;28;20341;-75
2022/05/24 22:04:44;;;;;;;4.95;2.53;;;;;;;11.70;100.00;101140.13;10421431;28;20033;-75
2022/05/24 22:09:44;;;;;;;2.00;1.73;;;;;;;11.67;100.00;101147.84;10420900;28;20034;-75
2022/05/24 22:14:44;;;;;;;8.60;1.67;;;;;;;11.61;100.00;101144.91;10421838;28;20033;-75
2022/05/24 22:19:45;;;;;;;1.75;1.65;;;;;;;11.61;100.00;101138.59;10421090;28;20037;-75
2022/05/24 22:24:45;;;;;;;2.17;1.50;;;;;;;11.59;100.00;101152.38;10404676;28;20045;-75
2022/05/24 22:29:46;;;;;;;7.78;2.22;;;;;;;11.61;100.00;101152.16;10420735;28;20095;-75
2022/05/24 22:34:46;;;;;;;1.05;1.05;;;;;;;11.61;100.00;101157.59;10418494;28;20497;-74
2022/05/24 22:39:47;;;;;;;1.27;1.17;;;;;;;11.61;100.00;101158.47;10419634;28;20042;-75
2022/05/24 22:44:56;;;;;;;4.22;2.03;;;;;;;11.59;100.00;101162.41;10402466;28;20037;-75
2022/05/24 22:49:57;;;;;;;6.68;2.92;;;;;;;11.58;100.00;101163.41;10405013;28;20033;-75
2022/05/24 22:54:57;;;;;;;2.58;1.80;;;;;;;11.56;100.00;101163.63;10419597;28;20128;-75
2022/05/24 22:59:57;;;;;;;1.52;1.42;;;;;;;11.53;100.00;101157.75;10401312;28;20033;-75
2022/05/24 23:04:58;;;;;;;1.88;1.52;;;;;;;11.52;100.00;101158.78;10418793;28;20041;-75
2022/05/24 23:09:58;;;;;;;1.73;1.60;;;;;;;11.47;100.00;101158.56;10419527;28;20029;-75
2022/05/24 23:14:59;;;;;;;3.53;2.08;;;;;;;11.38;100.00;101161.38;10401907;28;20373;-75
2022/05/24 23:20:00;;;;;;;3.33;1.63;;;;;;;11.24;100.00;101162.34;10419202;28;20079;-75
2022/05/24 23:25:00;;;;;;;1.95;1.85;;;;;;;11.20;100.00;101162.91;10418160;28;20038;-75
2022/05/24 23:30:01;;;;;;;4.68;2.33;;;;;;;11.20;100.00;101161.06;10400507;28;20424;-75
2022/05/24 23:35:01;;;;;;;7.03;2.22;;;;;;;11.17;100.00;101156.84;10420628;28;20195;-75
2022/05/24 23:40:02;;;;;;;5.50;3.22;;;;;;;11.15;100.00;101163.50;10401130;28;20148;-74
2022/05/24 23:45:02;;;;;;;1.92;1.83;;;;;;;11.19;100.00;101175.63;10417856;28;20025;-75
2022/05/24 23:50:04;;;;;;;2.03;1.92;;;;;;;11.16;100.00;101173.31;10417337;28;20033;-75
2022/05/24 23:55:05;;;;;;;7.43;2.47;;;;;;;11.14;100.00;101173.50;10416579;28;20030;-74
